sensor_id;sensor_type;location;lat;lon;timestamp;P1;durP1;ratioP1;P2;durP2;ratioP2
9783;SDS011;4931;44.874;-1.092;2022-07-06T00:02:39;8.80;;;2.20;;
9783;SDS011;4931;44.874;-1.092;2022-07-06T00:07:24;12.48;;;2.78;;
9783;SDS011;4931;44.874;-1.092;2022-07-06T00:12:13;13.50;;;2.67;;
9783;SDS011;4931;44.874;-1.092;2022-07-06T00:16:58;11.63;;;2.63;;
9783;SDS011;4931;44.874;-1.092;2022-07-06T00:21:43;13.93;;;2.70;;
9783;SDS011;4931;44.874;-1.092;2022-07-06T00:26:29;7.18;;;2.30;;
9783;SDS011;4931;44.874;-1.092;2022-07-06T00:31:17;8.98;;;2.78;;
9783;SDS011;4931;44.874;-1.092;2022-07-06T00:36:02;11.57;;;2.40;;
9783;SDS011;4931;44.874;-1.092;2022-07-06T00:40:48;9.05;;;2.47;;
9783;SDS011;4931;44.874;-1.092;2022-07-06T00:45:33;11.52;;;3.30;;
9783;SDS011;4931;44.874;-1.092;2022-07-06T00:50:21;12.00;;;2.58;;
9783;SDS011;4931;44.874;-1.092;2022-07-06T00:55:07;15.73;;;2.80;;
9783;SDS011;4931;44.874;-1.092;2022-07-06T00:59:53;13.05;;;2.70;;
9783;SDS011;4931;44.874;-1.092;2022-07-06T01:04:39;11.48;;;2.67;;
9783;SDS011;4931;44.874;-1.092;2022-07-06T01:09:27;8.55;;;2.53;;
9783;SDS011;4931;44.874;-1.092;2022-07-06T01:14:13;7.75;;;2.50;;
9783;SDS011;4931;44.874;-1.092;2022-07-06T01:18:59;8.02;;;2.60;;
9783;SDS011;4931;44.874;-1.092;2022-07-06T01:23:47;12.88;;;2.70;;
9783;SDS011;4931;44.874;-1.092;2022-07-06T01:28:33;7.30;;;2.67;;
9783;SDS011;4931;44.874;-1.092;2022-07-06T01:33:18;8.20;;;2.88;;
9783;SDS011;4931;44.874;-1.092;2022-07-06T01:38:03;6.35;;;2.67;;
9783;SDS011;4931;44.874;-1.092;2022-07-06T01:42:51;7.78;;;2.55;;
9783;SDS011;4931;44.874;-1.092;2022-07-06T01:47:37;6.57;;;2.95;;
9783;SDS011;4931;44.874;-1.092;2022-07-06T01:52:22;9.85;;;2.83;;
9783;SDS011;4931;44.874;-1.092;2022-07-06T01:57:07;7.25;;;2.75;;
9783;SDS011;4931;44.874;-1.092;2022-07-06T02:01:55;8.07;;;2.45;;
9783;SDS011;4931;44.874;-1.092;2022-07-06T02:06:40;9.38;;;2.65;;
9783;SDS011;4931;44.874;-1.092;2022-07-06T02:11:26;7.80;;;2.50;;
9783;SDS011;4931;44.874;-1.092;2022-07-06T02:16:12;10.13;;;3.22;;
9783;SDS011;4931;44.874;-1.092;2022-07-06T02:20:59;9.18;;;2.80;;
9783;SDS011;4931;44.874;-1.092;2022-07-06T02:25:45;10.63;;;2.55;;
9783;SDS011;4931;44.874;-1.092;2022-07-06T02:30:30;6.00;;;2.60;;
9783;SDS011;4931;44.874;-1.092;2022-07-06T02:35:16;9.85;;;2.35;;
9783;SDS011;4931;44.874;-1.092;2022-07-06T02:40:04;6.80;;;2.40;;
9783;SDS011;4931;44.874;-1.092;2022-07-06T02:44:51;13.38;;;2.90;;
9783;SDS011;4931;44.874;-1.092;2022-07-06T02:49:37;6.45;;;2.33;;
9783;SDS011;4931;44.874;-1.092;2022-07-06T02:54:22;9.43;;;2.60;;
9783;SDS011;4931;44.874;-1.092;2022-07-06T02:59:10;6.80;;;2.70;;
9783;SDS011;4931;44.874;-1.092;2022-07-06T03:03:55;8.98;;;2.45;;
9783;SDS011;4931;44.874;-1.092;2022-07-06T03:08:41;5.95;;;2.65;;
9783;SDS011;4931;44.874;-1.092;2022-07-06T03:13:26;7.25;;;2.42;;
9783;SDS011;4931;44.874;-1.092;2022-07-06T03:18:14;6.65;;;2.50;;
9783;SDS011;4931;44.874;-1.092;2022-07-06T03:23:00;9.15;;;2.40;;
9783;SDS011;4931;44.874;-1.092;2022-07-06T03:27:45;6.00;;;2.38;;
9783;SDS011;4931;44.874;-1.092;2022-07-06T03:32:31;5.85;;;2.20;;
9783;SDS011;4931;44.874;-1.092;2022-07-06T03:37:18;7.22;;;2.63;;
9783;SDS011;4931;44.874;-1.092;2022-07-06T03:42:04;6.90;;;3.00;;
9783;SDS011;4931;44.874;-1.092;2022-07-06T03:46:49;5.95;;;2.90;;
9783;SDS011;4931;44.874;-1.092;2022-07-06T03:51:37;6.68;;;2.10;;
9783;SDS011;4931;44.874;-1.092;2022-07-06T03:56:25;6.68;;;2.28;;
9783;SDS011;4931;44.874;-1.092;2022-07-06T04:05:59;4.57;;;2.60;;
9783;SDS011;4931;44.874;-1.092;2022-07-06T04:10:45;8.68;;;2.30;;
9783;SDS011;4931;44.874;-1.092;2022-07-06T04:15:32;6.93;;;2.45;;
9783;SDS011;4931;44.874;-1.092;2022-07-06T04:20:18;6.28;;;2.47;;
9783;SDS011;4931;44.874;-1.092;2022-07-06T04:25:04;6.18;;;2.88;;
9783;SDS011;4931;44.874;-1.092;2022-07-06T04:29:50;5.78;;;2.15;;
9783;SDS011;4931;44.874;-1.092;2022-07-06T04:34:40;5.35;;;2.53;;
9783;SDS011;4931;44.874;-1.092;2022-07-06T04:39:25;5.05;;;2.47;;
9783;SDS011;4931;44.874;-1.092;2022-07-06T04:44:13;6.13;;;2.53;;
9783;SDS011;4931;44.874;-1.092;2022-07-06T04:48:58;5.45;;;2.65;;
9783;SDS011;4931;44.874;-1.092;2022-07-06T04:53:46;7.50;;;2.38;;
9783;SDS011;4931;44.874;-1.092;2022-07-06T04:58:32;10.65;;;2.70;;
9783;SDS011;4931;44.874;-1.092;2022-07-06T05:03:17;5.47;;;2.70;;
9783;SDS011;4931;44.874;-1.092;2022-07-06T05:08:03;5.32;;;2.38;;
9783;SDS011;4931;44.874;-1.092;2022-07-06T05:12:51;3.97;;;2.60;;
9783;SDS011;4931;44.874;-1.092;2022-07-06T05:17:37;5.57;;;2.47;;
9783;SDS011;4931;44.874;-1.092;2022-07-06T05:22:22;5.85;;;2.80;;
9783;SDS011;4931;44.874;-1.092;2022-07-06T05:27:07;8.48;;;3.58;;
9783;SDS011;4931;44.874;-1.092;2022-07-06T05:31:55;5.47;;;2.65;;
9783;SDS011;4931;44.874;-1.092;2022-07-06T05:36:41;4.25;;;2.55;;
9783;SDS011;4931;44.874;-1.092;2022-07-06T05:41:26;5.32;;;2.90;;
9783;SDS011;4931;44.874;-1.092;2022-07-06T05:46:12;5.60;;;2.65;;
9783;SDS011;4931;44.874;-1.092;2022-07-06T05:51:00;8.48;;;2.78;;
9783;SDS011;4931;44.874;-1.092;2022-07-06T05:55:46;6.50;;;2.92;;
9783;SDS011;4931;44.874;-1.092;2022-07-06T06:00:31;5.45;;;2.78;;
9783;SDS011;4931;44.874;-1.092;2022-07-06T06:05:17;8.30;;;2.53;;
9783;SDS011;4931;44.874;-1.092;2022-07-06T06:10:09;5.95;;;2.45;;
9783;SDS011;4931;44.874;-1.092;2022-07-06T06:14:55;4.13;;;2.58;;
9783;SDS011;4931;44.874;-1.092;2022-07-06T06:19:41;6.15;;;2.53;;
9783;SDS011;4931;44.874;-1.092;2022-07-06T06:24:26;8.00;;;2.80;;
9783;SDS011;4931;44.874;-1.092;2022-07-06T06:29:14;7.75;;;2.88;;
9783;SDS011;4931;44.874;-1.092;2022-07-06T06:33:59;5.15;;;2.70;;
9783;SDS011;4931;44.874;-1.092;2022-07-06T06:38:44;5.25;;;2.75;;
9783;SDS011;4931;44.874;-1.092;2022-07-06T06:43:37;6.35;;;2.83;;
9783;SDS011;4931;44.874;-1.092;2022-07-06T06:48:25;6.43;;;2.67;;
9783;SDS011;4931;44.874;-1.092;2022-07-06T06:53:10;4.95;;;2.55;;
9783;SDS011;4931;44.874;-1.092;2022-07-06T06:57:56;11.70;;;2.70;;
9783;SDS011;4931;44.874;-1.092;2022-07-06T07:02:41;5.85;;;2.65;;
9783;SDS011;4931;44.874;-1.092;2022-07-06T07:07:29;5.93;;;2.67;;
9783;SDS011;4931;44.874;-1.092;2022-07-06T07:12:15;9.88;;;2.83;;
9783;SDS011;4931;44.874;-1.092;2022-07-06T07:17:00;5.82;;;2.58;;
9783;SDS011;4931;44.874;-1.092;2022-07-06T07:21:45;7.25;;;2.65;;
9783;SDS011;4931;44.874;-1.092;2022-07-06T07:26:33;6.00;;;2.35;;
9783;SDS011;4931;44.874;-1.092;2022-07-06T07:31:18;5.03;;;2.40;;
9783;SDS011;4931;44.874;-1.092;2022-07-06T07:36:04;7.43;;;2.45;;
9783;SDS011;4931;44.874;-1.092;2022-07-06T07:40:50;7.15;;;2.58;;
9783;SDS011;4931;44.874;-1.092;2022-07-06T07:45:37;4.38;;;2.40;;
9783;SDS011;4931;44.874;-1.092;2022-07-06T07:50:23;7.43;;;2.50;;
9783;SDS011;4931;44.874;-1.092;2022-07-06T07:55:08;3.25;;;2.55;;
9783;SDS011;4931;44.874;-1.092;2022-07-06T08:00:15;3.83;;;2.40;;
9783;SDS011;4931;44.874;-1.092;2022-07-06T08:05:11;3.47;;;2.35;;
9783;SDS011;4931;44.874;-1.092;2022-07-06T08:09:57;5.70;;;2.42;;
9783;SDS011;4931;44.874;-1.092;2022-07-06T08:14:42;5.88;;;2.22;;
9783;SDS011;4931;44.874;-1.092;2022-07-06T08:19:28;5.90;;;2.55;;
9783;SDS011;4931;44.874;-1.092;2022-07-06T08:24:16;4.75;;;2.20;;
9783;SDS011;4931;44.874;-1.092;2022-07-06T08:29:01;4.18;;;2.15;;
9783;SDS011;4931;44.874;-1.092;2022-07-06T08:33:47;6.05;;;2.45;;
9783;SDS011;4931;44.874;-1.092;2022-07-06T08:38:35;3.13;;;2.40;;
9783;SDS011;4931;44.874;-1.092;2022-07-06T08:43:23;11.60;;;2.47;;
9783;SDS011;4931;44.874;-1.092;2022-07-06T08:48:08;3.00;;;2.25;;
9783;SDS011;4931;44.874;-1.092;2022-07-06T08:52:55;6.35;;;2.40;;
9783;SDS011;4931;44.874;-1.092;2022-07-06T08:57:40;2.65;;;2.03;;
9783;SDS011;4931;44.874;-1.092;2022-07-06T09:02:28;4.90;;;2.63;;
9783;SDS011;4931;44.874;-1.092;2022-07-06T09:07:14;5.22;;;2.20;;
9783;SDS011;4931;44.874;-1.092;2022-07-06T09:12:20;6.15;;;2.22;;
9783;SDS011;4931;44.874;-1.092;2022-07-06T09:17:06;5.57;;;2.17;;
9783;SDS011;4931;44.874;-1.092;2022-07-06T09:22:00;6.28;;;2.35;;
9783;SDS011;4931;44.874;-1.092;2022-07-06T09:26:47;2.55;;;1.95;;
9783;SDS011;4931;44.874;-1.092;2022-07-06T09:31:33;4.28;;;2.30;;
9783;SDS011;4931;44.874;-1.092;2022-07-06T09:36:18;7.15;;;2.20;;
9783;SDS011;4931;44.874;-1.092;2022-07-06T09:41:32;5.13;;;2.10;;
9783;SDS011;4931;44.874;-1.092;2022-07-06T09:46:17;7.03;;;1.98;;
9783;SDS011;4931;44.874;-1.092;2022-07-06T09:51:03;5.13;;;2.05;;
9783;SDS011;4931;44.874;-1.092;2022-07-06T09:55:49;2.53;;;2.00;;
9783;SDS011;4931;44.874;-1.092;2022-07-06T10:00:38;4.03;;;1.88;;
9783;SDS011;4931;44.874;-1.092;2022-07-06T10:05:25;5.28;;;1.90;;
9783;SDS011;4931;44.874;-1.092;2022-07-06T10:10:11;4.18;;;1.98;;
9783;SDS011;4931;44.874;-1.092;2022-07-06T10:14:59;3.75;;;1.70;;
9783;SDS011;4931;44.874;-1.092;2022-07-06T10:19:48;4.45;;;1.67;;
9783;SDS011;4931;44.874;-1.092;2022-07-06T10:24:35;2.50;;;1.48;;
9783;SDS011;4931;44.874;-1.092;2022-07-06T10:29:25;4.00;;;1.70;;
9783;SDS011;4931;44.874;-1.092;2022-07-06T10:34:11;5.40;;;1.70;;
9783;SDS011;4931;44.874;-1.092;2022-07-06T10:39:00;5.85;;;2.47;;
9783;SDS011;4931;44.874;-1.092;2022-07-06T10:44:14;3.58;;;1.88;;
9783;SDS011;4931;44.874;-1.092;2022-07-06T10:49:00;3.20;;;1.80;;
9783;SDS011;4931;44.874;-1.092;2022-07-06T10:54:22;2.20;;;1.63;;
9783;SDS011;4931;44.874;-1.092;2022-07-06T10:59:11;4.03;;;1.45;;
9783;SDS011;4931;44.874;-1.092;2022-07-06T11:04:06;2.78;;;1.60;;
9783;SDS011;4931;44.874;-1.092;2022-07-06T11:08:53;3.03;;;1.60;;
9783;SDS011;4931;44.874;-1.092;2022-07-06T11:13:52;3.97;;;1.40;;
9783;SDS011;4931;44.874;-1.092;2022-07-06T11:18:46;2.85;;;1.50;;
9783;SDS011;4931;44.874;-1.092;2022-07-06T11:23:33;2.25;;;1.40;;
9783;SDS011;4931;44.874;-1.092;2022-07-06T11:28:19;3.60;;;1.67;;
9783;SDS011;4931;44.874;-1.092;2022-07-06T11:33:08;4.15;;;1.70;;
9783;SDS011;4931;44.874;-1.092;2022-07-06T11:37:54;4.72;;;1.73;;
9783;SDS011;4931;44.874;-1.092;2022-07-06T11:42:40;10.50;;;1.70;;
9783;SDS011;4931;44.874;-1.092;2022-07-06T11:47:37;3.33;;;1.20;;
9783;SDS011;4931;44.874;-1.092;2022-07-06T11:52:24;3.50;;;1.20;;
9783;SDS011;4931;44.874;-1.092;2022-07-06T11:57:10;3.13;;;1.48;;
9783;SDS011;4931;44.874;-1.092;2022-07-06T12:01:59;3.47;;;1.48;;
9783;SDS011;4931;44.874;-1.092;2022-07-06T12:06:45;5.53;;;1.60;;
9783;SDS011;4931;44.874;-1.092;2022-07-06T12:11:33;4.47;;;1.50;;
9783;SDS011;4931;44.874;-1.092;2022-07-06T12:16:28;3.88;;;1.60;;
9783;SDS011;4931;44.874;-1.092;2022-07-06T12:21:17;4.60;;;1.50;;
9783;SDS011;4931;44.874;-1.092;2022-07-06T12:26:04;6.28;;;1.80;;
9783;SDS011;4931;44.874;-1.092;2022-07-06T12:30:51;3.85;;;1.60;;
9783;SDS011;4931;44.874;-1.092;2022-07-06T12:35:37;4.53;;;2.00;;
9783;SDS011;4931;44.874;-1.092;2022-07-06T12:40:25;3.63;;;1.60;;
9783;SDS011;4931;44.874;-1.092;2022-07-06T12:45:12;2.50;;;1.60;;
9783;SDS011;4931;44.874;-1.092;2022-07-06T12:50:06;2.95;;;1.50;;
9783;SDS011;4931;44.874;-1.092;2022-07-06T12:54:53;4.13;;;1.60;;
9783;SDS011;4931;44.874;-1.092;2022-07-06T12:59:39;3.40;;;1.50;;
9783;SDS011;4931;44.874;-1.092;2022-07-06T13:04:29;6.45;;;1.50;;
9783;SDS011;4931;44.874;-1.092;2022-07-06T13:09:19;4.47;;;1.42;;
9783;SDS011;4931;44.874;-1.092;2022-07-06T13:14:07;5.70;;;1.40;;
9783;SDS011;4931;44.874;-1.092;2022-07-06T13:18:53;4.00;;;1.70;;
9783;SDS011;4931;44.874;-1.092;2022-07-06T13:23:38;3.10;;;1.30;;
9783;SDS011;4931;44.874;-1.092;2022-07-06T13:28:26;4.25;;;1.65;;
9783;SDS011;4931;44.874;-1.092;2022-07-06T13:33:11;5.25;;;1.65;;
9783;SDS011;4931;44.874;-1.092;2022-07-06T13:37:56;6.28;;;1.70;;
9783;SDS011;4931;44.874;-1.092;2022-07-06T13:42:42;3.90;;;1.77;;
9783;SDS011;4931;44.874;-1.092;2022-07-06T13:47:30;3.90;;;1.63;;
9783;SDS011;4931;44.874;-1.092;2022-07-06T13:52:15;3.88;;;1.30;;
9783;SDS011;4931;44.874;-1.092;2022-07-06T13:57:01;6.10;;;1.60;;
9783;SDS011;4931;44.874;-1.092;2022-07-06T14:01:48;5.25;;;1.65;;
9783;SDS011;4931;44.874;-1.092;2022-07-06T14:06:36;2.72;;;1.33;;
9783;SDS011;4931;44.874;-1.092;2022-07-06T14:11:23;3.22;;;1.50;;
9783;SDS011;4931;44.874;-1.092;2022-07-06T14:16:09;5.63;;;1.70;;
9783;SDS011;4931;44.874;-1.092;2022-07-06T14:20:55;3.28;;;1.60;;
9783;SDS011;4931;44.874;-1.092;2022-07-06T14:25:43;5.32;;;1.60;;
9783;SDS011;4931;44.874;-1.092;2022-07-06T14:30:31;4.18;;;1.70;;
9783;SDS011;4931;44.874;-1.092;2022-07-06T14:35:18;5.75;;;1.90;;
9783;SDS011;4931;44.874;-1.092;2022-07-06T14:40:04;4.80;;;1.73;;
9783;SDS011;4931;44.874;-1.092;2022-07-06T14:44:53;4.32;;;1.80;;
9783;SDS011;4931;44.874;-1.092;2022-07-06T14:49:38;8.15;;;1.95;;
9783;SDS011;4931;44.874;-1.092;2022-07-06T14:54:23;8.32;;;4.90;;
9783;SDS011;4931;44.874;-1.092;2022-07-06T14:59:09;4.50;;;1.77;;
9783;SDS011;4931;44.874;-1.092;2022-07-06T15:04:08;6.80;;;2.17;;
9783;SDS011;4931;44.874;-1.092;2022-07-06T15:08:54;3.15;;;2.05;;
9783;SDS011;4931;44.874;-1.092;2022-07-06T15:13:39;4.88;;;1.88;;
9783;SDS011;4931;44.874;-1.092;2022-07-06T15:18:25;2.65;;;1.60;;
9783;SDS011;4931;44.874;-1.092;2022-07-06T15:23:13;6.53;;;1.98;;
9783;SDS011;4931;44.874;-1.092;2022-07-06T15:27:58;5.38;;;1.85;;
9783;SDS011;4931;44.874;-1.092;2022-07-06T15:32:43;6.05;;;2.35;;
9783;SDS011;4931;44.874;-1.092;2022-07-06T15:37:29;6.60;;;1.90;;
9783;SDS011;4931;44.874;-1.092;2022-07-06T15:42:16;6.35;;;2.20;;
9783;SDS011;4931;44.874;-1.092;2022-07-06T15:47:06;7.45;;;2.00;;
9783;SDS011;4931;44.874;-1.092;2022-07-06T15:51:51;6.45;;;2.25;;
9783;SDS011;4931;44.874;-1.092;2022-07-06T15:56:37;5.38;;;2.30;;
9783;SDS011;4931;44.874;-1.092;2022-07-06T16:01:26;5.32;;;2.38;;
9783;SDS011;4931;44.874;-1.092;2022-07-06T16:06:11;7.35;;;2.40;;
9783;SDS011;4931;44.874;-1.092;2022-07-06T16:10:57;4.15;;;1.95;;
9783;SDS011;4931;44.874;-1.092;2022-07-06T16:15:43;5.47;;;2.30;;
9783;SDS011;4931;44.874;-1.092;2022-07-06T16:20:30;7.50;;;2.42;;
9783;SDS011;4931;44.874;-1.092;2022-07-06T16:25:16;6.20;;;2.38;;
9783;SDS011;4931;44.874;-1.092;2022-07-06T16:30:03;7.97;;;2.50;;
9783;SDS011;4931;44.874;-1.092;2022-07-06T16:34:51;5.78;;;2.67;;
9783;SDS011;4931;44.874;-1.092;2022-07-06T16:39:39;5.15;;;2.42;;
9783;SDS011;4931;44.874;-1.092;2022-07-06T16:44:24;7.75;;;2.50;;
9783;SDS011;4931;44.874;-1.092;2022-07-06T16:49:09;6.07;;;2.60;;
9783;SDS011;4931;44.874;-1.092;2022-07-06T16:53:55;3.10;;;2.60;;
9783;SDS011;4931;44.874;-1.092;2022-07-06T16:58:43;8.57;;;3.08;;
9783;SDS011;4931;44.874;-1.092;2022-07-06T17:03:28;7.70;;;2.90;;
9783;SDS011;4931;44.874;-1.092;2022-07-06T17:08:16;10.10;;;2.75;;
9783;SDS011;4931;44.874;-1.092;2022-07-06T17:13:02;7.95;;;3.10;;
9783;SDS011;4931;44.874;-1.092;2022-07-06T17:17:50;6.45;;;2.30;;
9783;SDS011;4931;44.874;-1.092;2022-07-06T17:22:36;5.55;;;2.30;;
9783;SDS011;4931;44.874;-1.092;2022-07-06T17:27:21;7.43;;;2.30;;
9783;SDS011;4931;44.874;-1.092;2022-07-06T17:32:06;8.25;;;2.42;;
9783;SDS011;4931;44.874;-1.092;2022-07-06T17:36:55;6.15;;;2.22;;
9783;SDS011;4931;44.874;-1.092;2022-07-06T17:41:40;6.15;;;2.17;;
9783;SDS011;4931;44.874;-1.092;2022-07-06T17:46:26;6.15;;;2.70;;
9783;SDS011;4931;44.874;-1.092;2022-07-06T17:51:11;6.82;;;2.80;;
9783;SDS011;4931;44.874;-1.092;2022-07-06T17:55:59;7.30;;;2.30;;
9783;SDS011;4931;44.874;-1.092;2022-07-06T18:00:45;8.35;;;2.53;;
9783;SDS011;4931;44.874;-1.092;2022-07-06T18:05:38;9.05;;;2.65;;
9783;SDS011;4931;44.874;-1.092;2022-07-06T18:10:28;9.18;;;2.85;;
9783;SDS011;4931;44.874;-1.092;2022-07-06T18:15:16;11.65;;;2.70;;
9783;SDS011;4931;44.874;-1.092;2022-07-06T18:20:02;8.73;;;2.45;;
9783;SDS011;4931;44.874;-1.092;2022-07-06T18:24:48;6.43;;;2.67;;
9783;SDS011;4931;44.874;-1.092;2022-07-06T18:29:33;7.05;;;2.70;;
9783;SDS011;4931;44.874;-1.092;2022-07-06T18:34:21;8.23;;;3.05;;
9783;SDS011;4931;44.874;-1.092;2022-07-06T18:39:08;8.43;;;3.05;;
9783;SDS011;4931;44.874;-1.092;2022-07-06T18:43:53;7.88;;;2.58;;
9783;SDS011;4931;44.874;-1.092;2022-07-06T18:48:38;6.50;;;2.58;;
9783;SDS011;4931;44.874;-1.092;2022-07-06T18:53:26;6.22;;;3.00;;
9783;SDS011;4931;44.874;-1.092;2022-07-06T18:58:12;11.50;;;2.90;;
9783;SDS011;4931;44.874;-1.092;2022-07-06T19:02:58;10.75;;;3.03;;
9783;SDS011;4931;44.874;-1.092;2022-07-06T19:07:44;10.77;;;3.33;;
9783;SDS011;4931;44.874;-1.092;2022-07-06T19:12:32;7.72;;;3.20;;
9783;SDS011;4931;44.874;-1.092;2022-07-06T19:17:17;5.53;;;2.95;;
9783;SDS011;4931;44.874;-1.092;2022-07-06T19:22:03;13.20;;;3.60;;
9783;SDS011;4931;44.874;-1.092;2022-07-06T19:26:48;12.32;;;4.47;;
9783;SDS011;4931;44.874;-1.092;2022-07-06T19:31:36;12.10;;;3.30;;
9783;SDS011;4931;44.874;-1.092;2022-07-06T19:36:22;8.73;;;3.50;;
9783;SDS011;4931;44.874;-1.092;2022-07-06T19:41:07;9.23;;;3.30;;
9783;SDS011;4931;44.874;-1.092;2022-07-06T19:45:53;9.68;;;3.40;;
9783;SDS011;4931;44.874;-1.092;2022-07-06T19:50:41;11.98;;;3.60;;
9783;SDS011;4931;44.874;-1.092;2022-07-06T19:55:28;9.25;;;3.78;;
9783;SDS011;4931;44.874;-1.092;2022-07-06T20:00:13;6.10;;;3.40;;
9783;SDS011;4931;44.874;-1.092;2022-07-06T20:05:01;13.05;;;3.97;;
9783;SDS011;4931;44.874;-1.092;2022-07-06T20:09:49;8.57;;;3.55;;
9783;SDS011;4931;44.874;-1.092;2022-07-06T20:14:34;11.52;;;3.75;;
9783;SDS011;4931;44.874;-1.092;2022-07-06T20:19:20;9.57;;;4.25;;
9783;SDS011;4931;44.874;-1.092;2022-07-06T20:24:06;12.82;;;3.97;;
9783;SDS011;4931;44.874;-1.092;2022-07-06T20:28:54;11.27;;;4.22;;
9783;SDS011;4931;44.874;-1.092;2022-07-06T20:33:40;13.45;;;4.70;;
9783;SDS011;4931;44.874;-1.092;2022-07-06T20:38:25;15.18;;;4.55;;
9783;SDS011;4931;44.874;-1.092;2022-07-06T20:43:10;15.15;;;5.30;;
9783;SDS011;4931;44.874;-1.092;2022-07-06T20:48:07;13.40;;;5.18;;
9783;SDS011;4931;44.874;-1.092;2022-07-06T20:52:52;12.27;;;5.97;;
9783;SDS011;4931;44.874;-1.092;2022-07-06T20:57:37;27.58;;;14.07;;
9783;SDS011;4931;44.874;-1.092;2022-07-06T21:02:23;14.00;;;4.30;;
9783;SDS011;4931;44.874;-1.092;2022-07-06T21:07:10;11.23;;;4.72;;
9783;SDS011;4931;44.874;-1.092;2022-07-06T21:11:56;9.10;;;4.28;;
9783;SDS011;4931;44.874;-1.092;2022-07-06T21:16:41;48.08;;;24.13;;
9783;SDS011;4931;44.874;-1.092;2022-07-06T21:21:27;53.55;;;26.05;;
9783;SDS011;4931;44.874;-1.092;2022-07-06T21:26:16;11.73;;;4.53;;
9783;SDS011;4931;44.874;-1.092;2022-07-06T21:31:02;13.77;;;5.95;;
9783;SDS011;4931;44.874;-1.092;2022-07-06T21:35:47;11.60;;;4.00;;
9783;SDS011;4931;44.874;-1.092;2022-07-06T21:40:32;12.77;;;3.90;;
9783;SDS011;4931;44.874;-1.092;2022-07-06T21:45:20;9.25;;;3.95;;
9783;SDS011;4931;44.874;-1.092;2022-07-06T21:50:06;11.18;;;4.00;;
9783;SDS011;4931;44.874;-1.092;2022-07-06T21:54:52;12.27;;;3.65;;
9783;SDS011;4931;44.874;-1.092;2022-07-06T21:59:37;11.77;;;4.28;;
9783;SDS011;4931;44.874;-1.092;2022-07-06T22:04:26;9.32;;;3.83;;
9783;SDS011;4931;44.874;-1.092;2022-07-06T22:09:12;8.63;;;3.83;;
9783;SDS011;4931;44.874;-1.092;2022-07-06T22:13:58;9.25;;;3.97;;
9783;SDS011;4931;44.874;-1.092;2022-07-06T22:18:45;6.45;;;3.88;;
9783;SDS011;4931;44.874;-1.092;2022-07-06T22:23:35;13.15;;;4.35;;
9783;SDS011;4931;44.874;-1.092;2022-07-06T22:28:21;5.97;;;3.80;;
9783;SDS011;4931;44.874;-1.092;2022-07-06T22:33:07;11.32;;;4.18;;
9783;SDS011;4931;44.874;-1.092;2022-07-06T22:37:53;10.25;;;4.30;;
9783;SDS011;4931;44.874;-1.092;2022-07-06T22:42:42;8.68;;;4.07;;
9783;SDS011;4931;44.874;-1.092;2022-07-06T22:47:28;9.07;;;4.45;;
9783;SDS011;4931;44.874;-1.092;2022-07-06T22:52:14;11.05;;;4.20;;
9783;SDS011;4931;44.874;-1.092;2022-07-06T22:57:00;11.95;;;5.28;;
9783;SDS011;4931;44.874;-1.092;2022-07-06T23:01:48;11.77;;;4.53;;
9783;SDS011;4931;44.874;-1.092;2022-07-06T23:06:34;12.27;;;4.50;;
9783;SDS011;4931;44.874;-1.092;2022-07-06T23:11:19;11.60;;;4.47;;
9783;SDS011;4931;44.874;-1.092;2022-07-06T23:16:09;9.93;;;4.65;;
9783;SDS011;4931;44.874;-1.092;2022-07-06T23:20:58;10.68;;;4.63;;
9783;SDS011;4931;44.874;-1.092;2022-07-06T23:25:44;7.47;;;4.22;;
9783;SDS011;4931;44.874;-1.092;2022-07-06T23:30:29;18.40;;;4.68;;
9783;SDS011;4931;44.874;-1.092;2022-07-06T23:35:17;10.85;;;4.40;;
9783;SDS011;4931;44.874;-1.092;2022-07-06T23:40:06;11.68;;;4.78;;
9783;SDS011;4931;44.874;-1.092;2022-07-06T23:44:53;9.35;;;4.32;;
9783;SDS011;4931;44.874;-1.092;2022-07-06T23:49:38;11.20;;;4.20;;
9783;SDS011;4931;44.874;-1.092;2022-07-06T23:54:25;12.18;;;4.55;;
9783;SDS011;4931;44.874;-1.092;2022-07-06T23:59:13;11.85;;;4.50;;
